Time;durP1;ratioP1;P1;durP2;ratioP2;P2;SDS_P1;SDS_P2;PMS_P1;PMS_P2;Temp;Humidity;BMP_temperature;BMP_pressure;BME280_temperature;BME280_humidity;BME280_pressure;Samples;Min_cycle;Max_cycle;Signal;HPM_P1;HPM_P2
2021/10/09 00:07:55;;;;;;;16.5;10.5;;;;;;;2.38;100;100072.7;;;;
2021/10/09 00:17:53;;;;;;;17.5;10.9;;;;;;;2.27;100;100065.4;;;;
2021/10/09 00:27:51;;;;;;;14.5;10.1;;;;;;;2.23;100;100065;;;;
2021/10/09 00:37:49;;;;;;;14.4;9.7;;;;;;;2.17;100;100065;;;;
2021/10/09 00:47:49;;;;;;;22.8;11;;;;;;;1.98;100;100065;;;;
2021/10/09 00:57:49;;;;;;;15.7;7.5;;;;;;;1.87;100;100063;;;;
2021/10/09 01:07:44;;;;;;;15.8;10;;;;;;;1.75;100;100051.4;;;;
2021/10/09 01:17:48;;;;;;;17.5;10.4;;;;;;;1.7;100;100039.8;;;;
2021/10/09 01:27:40;;;;;;;15.8;9.9;;;;;;;1.77;100;100033.4;;;;
2021/10/09 01:37:38;;;;;;;13.8;11.1;;;;;;;1.66;100;100033.3;;;;
2021/10/09 01:47:36;;;;;;;14.4;10.3;;;;;;;1.6;100;100023.6;;;;
2021/10/09 01:57:34;;;;;;;14.8;9.8;;;;;;;1.48;100;100015.4;;;;
2021/10/09 02:07:32;;;;;;;18.4;10.7;;;;;;;1.39;100;100035.3;;;;
2021/10/09 02:27:28;;;;;;;21;11.6;;;;;;;1.23;100;100034;;;;
2021/10/09 02:37:26;;;;;;;11.3;8.1;;;;;;;1.12;100;100025.8;;;;
2021/10/09 02:47:24;;;;;;;14.5;10.6;;;;;;;1.03;100;100027.1;;;;
2021/10/09 02:57:22;;;;;;;13.7;9.4;;;;;;;0.99;100;100027.5;;;;
2021/10/09 03:07:20;;;;;;;14.9;9.3;;;;;;;0.85;100;100041;;;;
2021/10/09 03:17:18;;;;;;;17.1;8;;;;;;;0.74;100;100047;;;;
2021/10/09 03:27:16;;;;;;;13.9;9;;;;;;;0.64;100;100051.9;;;;
2021/10/09 03:37:14;;;;;;;13.8;10.1;;;;;;;0.54;100;100048.9;;;;
2021/10/09 03:47:20;;;;;;;15;12.7;;;;;;;0.49;100;100052.1;;;;
2021/10/09 03:57:09;;;;;;;21.6;11.1;;;;;;;0.41;100;100063;;;;
2021/10/09 04:07:07;;;;;;;20.4;12;;;;;;;0.22;100;100061.1;;;;
2021/10/09 04:17:05;;;;;;;19.4;11.4;;;;;;;0.12;100;100066;;;;
2021/10/09 04:27:03;;;;;;;18.1;11.4;;;;;;;-0.03;100;100074.2;;;;
2021/10/09 04:37:07;;;;;;;13.9;10.9;;;;;;;-0.06;100;100075.4;;;;
2021/10/09 04:47:03;;;;;;;13.7;10.2;;;;;;;-0.03;100;100082.9;;;;
2021/10/09 04:56:56;;;;;;;18.3;10.7;;;;;;;-0.01;100;100088.9;;;;
2021/10/09 05:06:54;;;;;;;13.1;10.9;;;;;;;0.04;100;100093.5;;;;
2021/10/09 05:16:52;;;;;;;21.7;13.2;;;;;;;0.18;100;100097.8;;;;
2021/10/09 05:26:50;;;;;;;15.3;12.7;;;;;;;0.34;100;100097.5;;;;
2021/10/09 05:36:47;;;;;;;20.9;12.4;;;;;;;0.49;100;100105.2;;;;
2021/10/09 05:46:45;;;;;;;18.1;12;;;;;;;0.7;100;100106.8;;;;
2021/10/09 05:56:50;;;;;;;20.8;11.4;;;;;;;0.91;100;100110;;;;
2021/10/09 07:06:31;;;;;;;22.4;17.4;;;;;;;2.62;100;100180.9;;;;
2021/10/09 07:16:27;;;;;;;23.6;14.9;;;;;;;2.81;100;100177.3;;;;
2021/10/09 07:26:26;;;;;;;18.5;15.7;;;;;;;3.25;100;100197.6;;;;
2021/10/09 07:36:24;;;;;;;16.3;14.5;;;;;;;3.67;100;100213.8;;;;
2021/10/09 07:46:22;;;;;;;15.6;12.6;;;;;;;4.02;100;100206.8;;;;
2021/10/09 07:56:20;;;;;;;28;18.2;;;;;;;4.36;100;100208.8;;;;
2021/10/09 08:06:19;;;;;;;19.7;17.3;;;;;;;4.69;100;100218.1;;;;
2021/10/09 08:16:17;;;;;;;21.9;14.4;;;;;;;5.2;100;100206.8;;;;
2021/10/09 08:36:29;;;;;;;19.1;14.6;;;;;;;5.86;100;100201.8;;;;
2021/10/09 08:46:12;;;;;;;18.1;13;;;;;;;6.13;100;100186;;;;
2021/10/09 08:56:11;;;;;;;14.5;12.1;;;;;;;6.64;100;100193.1;;;;
2021/10/09 09:06:18;;;;;;;21.8;13.8;;;;;;;6.9;100;100187.1;;;;
2021/10/09 09:26:28;;;;;;;17.1;10.9;;;;;;;7.76;100;100177.6;;;;
2021/10/09 09:46:14;;;;;;;14.9;10.4;;;;;;;8.37;100;100183.6;;;;
2021/10/09 09:56:04;;;;;;;15.8;9.2;;;;;;;8.45;100;100175.1;;;;
2021/10/09 10:06:04;;;;;;;14.7;8.5;;;;;;;8.49;100;100168.2;;;;
2021/10/09 10:16:14;;;;;;;15;8;;;;;;;8.73;100;100161.4;;;;
2021/10/09 10:26:08;;;;;;;14.8;10.6;;;;;;;8.72;96.6582;100157.1;;;;
2021/10/09 10:45:58;;;;;;;12.8;7;;;;;;;9.21;94.38281;100151.5;;;;
2021/10/09 10:56:03;;;;;;;11.7;7.7;;;;;;;9.21;98.51074;100147;;;;
2021/10/09 11:05:56;;;;;;;13.2;8.1;;;;;;;9.5;94.82715;100147.4;;;;
2021/10/09 11:15:55;;;;;;;21.5;15.1;;;;;;;9.39;99.46777;100125;;;;
2021/10/09 11:25:54;;;;;;;11.1;7.8;;;;;;;9.77;97.09082;100123;;;;
2021/10/09 11:35:53;;;;;;;9.2;7;;;;;;;10.17;93.61621;100117.7;;;;
2021/10/09 11:46:00;;;;;;;10.9;7.6;;;;;;;10.31;90.8291;100104.6;;;;
2021/10/09 11:55:51;;;;;;;10.3;6.6;;;;;;;10.63;88.38867;100094.3;;;;
2021/10/09 12:05:57;;;;;;;8.2;4.7;;;;;;;10.71;76.09863;100087.6;;;;
2021/10/09 12:15:49;;;;;;;11.5;6.6;;;;;;;10.82;78.77148;100087.3;;;;
2021/10/09 12:25:48;;;;;;;18.8;6.9;;;;;;;10.36;75.74512;100072.2;;;;
2021/10/09 12:35:47;;;;;;;12.2;6.8;;;;;;;10.48;78.49609;100084.3;;;;
2021/10/09 12:45:46;;;;;;;12.1;7;;;;;;;10.55;77.5166;100070.6;;;;
2021/10/09 12:55:45;;;;;;;13.1;7.2;;;;;;;10.43;79.12891;100067.4;;;;
2021/10/09 13:05:44;;;;;;;11.4;6.8;;;;;;;10.51;76.08887;100070.3;;;;
2021/10/09 13:15:43;;;;;;;15.3;8.4;;;;;;;10.73;78.9248;100053.8;;;;
2021/10/09 13:25:42;;;;;;;12.3;7.4;;;;;;;10.68;74.49023;100053.1;;;;
2021/10/09 13:35:41;;;;;;;13.4;7.8;;;;;;;10.7;75.53418;100049;;;;
2021/10/09 13:45:40;;;;;;;13.8;7.7;;;;;;;10.68;77.38086;100053.1;;;;
2021/10/09 13:55:40;;;;;;;11.5;8.4;;;;;;;10.74;76.88379;100047.4;;;;
2021/10/09 14:05:39;;;;;;;14.6;9.2;;;;;;;10.73;75.71777;100031.5;;;;
2021/10/09 14:15:38;;;;;;;15.1;10.6;;;;;;;10.55;75.83496;100035.6;;;;
2021/10/09 14:25:37;;;;;;;14.1;9;;;;;;;10.33;75.75098;100040.4;;;;
2021/10/09 14:35:36;;;;;;;12.4;8;;;;;;;10.21;72.91016;100027.2;;;;
2021/10/09 14:45:39;;;;;;;17.7;8.2;;;;;;;9.95;71.45605;100039;;;;
2021/10/09 14:56:06;;;;;;;14.1;8.3;;;;;;;9.67;74.53223;100037.6;;;;
2021/10/09 15:25:34;;;;;;;17.9;11.2;;;;;;;8.9;81.72656;100032.2;;;;
2021/10/09 15:35:31;;;;;;;16.4;9;;;;;;;8.62;85.60742;100035.3;;;;
2021/10/09 15:45:28;;;;;;;16.5;8.6;;;;;;;8.28;87.83496;100045.5;;;;
2021/10/09 15:55:29;;;;;;;20.1;11.1;;;;;;;7.9;90.84277;100050;;;;
2021/10/09 16:05:26;;;;;;;21.9;18;;;;;;;7.45;94.4502;100047.6;;;;
2021/10/09 16:15:25;;;;;;;20.8;14.7;;;;;;;7.02;99.55176;100045.8;;;;
2021/10/09 16:25:23;;;;;;;17.7;11.6;;;;;;;6.74;100;100056.6;;;;
2021/10/09 16:35:22;;;;;;;28.5;22.9;;;;;;;6.47;100;100050.3;;;;
2021/10/09 16:45:20;;;;;;;21.6;16.2;;;;;;;6.2;100;100049.4;;;;
2021/10/09 16:55:19;;;;;;;22.6;14.7;;;;;;;5.9;100;100050.5;;;;
2021/10/09 17:05:17;;;;;;;21.6;16.2;;;;;;;5.72;100;100061.4;;;;
2021/10/09 17:15:16;;;;;;;54;45.1;;;;;;;5.31;100;100061.6;;;;
2021/10/09 17:25:14;;;;;;;30.4;23;;;;;;;4.99;100;100061.2;;;;
2021/10/09 17:35:13;;;;;;;25.4;18.5;;;;;;;4.77;100;100074.4;;;;
2021/10/09 17:45:11;;;;;;;27.8;19.7;;;;;;;4.66;100;100063.7;;;;
2021/10/09 17:55:10;;;;;;;34;20.4;;;;;;;4.5;100;100071.4;;;;
2021/10/09 18:05:08;;;;;;;27.3;20.1;;;;;;;4.19;100;100069;;;;
2021/10/09 18:15:06;;;;;;;25.6;18.8;;;;;;;4.01;100;100053.1;;;;
2021/10/09 18:25:04;;;;;;;24;16.7;;;;;;;3.92;100;100049.9;;;;
2021/10/09 18:35:03;;;;;;;23.2;16.3;;;;;;;3.72;100;100049.4;;;;
2021/10/09 18:45:01;;;;;;;22.9;18.2;;;;;;;3.63;100;100047.3;;;;
2021/10/09 18:54:59;;;;;;;29.8;18.1;;;;;;;3.48;100;100045;;;;
2021/10/09 19:04:57;;;;;;;32.1;28.6;;;;;;;3.31;100;100039.5;;;;
2021/10/09 19:14:55;;;;;;;33.6;27.3;;;;;;;3.14;100;100030.5;;;;
2021/10/09 19:24:54;;;;;;;21.1;17.5;;;;;;;3.09;100;100025;;;;
2021/10/09 19:34:58;;;;;;;27.7;21.3;;;;;;;3.11;100;100032.8;;;;
2021/10/09 19:44:50;;;;;;;22.5;19.7;;;;;;;2.96;100;100036.6;;;;
2021/10/09 19:54:56;;;;;;;36.9;24;;;;;;;2.88;100;100030.8;;;;
2021/10/09 20:04:46;;;;;;;24.7;21.1;;;;;;;2.88;100;100028.2;;;;
2021/10/09 20:14:44;;;;;;;28.2;23.1;;;;;;;2.71;100;100022.6;;;;
2021/10/09 20:24:42;;;;;;;30.9;21.1;;;;;;;2.61;100;100026.8;;;;
2021/10/09 20:34:40;;;;;;;26.1;20.4;;;;;;;2.44;100;100015.9;;;;
2021/10/09 20:44:38;;;;;;;26.6;20.3;;;;;;;2.43;100;100017.8;;;;
2021/10/09 20:54:36;;;;;;;27.7;19;;;;;;;2.36;100;100019.7;;;;
2021/10/09 21:04:35;;;;;;;32.3;22.9;;;;;;;2.28;100;100011.2;;;;
2021/10/09 21:24:31;;;;;;;23.9;18.4;;;;;;;1.89;100;99997.16;;;;
2021/10/09 21:34:29;;;;;;;33.5;25;;;;;;;1.84;100;99977.59;;;;
2021/10/09 21:44:27;;;;;;;32.2;20.9;;;;;;;1.84;100;99973.06;;;;
2021/10/09 21:54:25;;;;;;;35.2;22.6;;;;;;;1.78;100;99973.12;;;;
2021/10/09 22:34:16;;;;;;;23.2;18.9;;;;;;;1.36;100;99937.45;;;;
2021/10/09 22:44:14;;;;;;;27.1;20.8;;;;;;;1.34;100;99937.69;;;;
2021/10/09 22:54:12;;;;;;;30.5;21;;;;;;;1.29;100;99932.19;;;;
2021/10/09 23:04:10;;;;;;;35.2;23.7;;;;;;;1.25;100;99930.2;;;;
2021/10/09 23:14:08;;;;;;;36;24.2;;;;;;;1.2;100;99935.31;;;;
2021/10/09 23:24:06;;;;;;;33.3;23;;;;;;;1.09;100;99925.38;;;;
2021/10/09 23:34:03;;;;;;;28.7;20.8;;;;;;;1;100;99916.86;;;;
2021/10/09 23:44:01;;;;;;;34.5;21.6;;;;;;;0.82;100;99908.78;;;;
2021/10/09 23:53:59;;;;;;;42;24;;;;;;;0.64;100;99917.44;;;;
